sensor_id;sensor_type;location;lat;lon;timestamp;pressure;altitude;pressure_sealevel;temperature;humidity
53619;BME280;68717;53.040;18.488;2023-04-19T00:00:10;102008.13;;;22.04;100.00
53619;BME280;68717;53.040;18.488;2023-04-19T00:00:43;102012.53;;;22.05;100.00
53619;BME280;68717;53.040;18.488;2023-04-19T00:01:01;102009.13;;;22.03;100.00
53619;BME280;68717;53.040;18.488;2023-04-19T00:01:14;102010.84;;;22.04;100.00
53619;BME280;68717;53.040;18.488;2023-04-19T00:01:27;102013.59;;;22.04;100.00
53619;BME280;68717;53.040;18.488;2023-04-19T00:01:40;102010.84;;;22.04;100.00
53619;BME280;68717;53.040;18.488;2023-04-19T00:01:54;102010.84;;;22.04;100.00
53619;BME280;68717;53.040;18.488;2023-04-19T00:02:07;102010.84;;;22.04;100.00
53619;BME280;68717;53.040;18.488;2023-04-19T00:02:20;102005.41;;;22.04;100.00
53619;BME280;68717;53.040;18.488;2023-04-19T00:02:34;102010.84;;;22.04;100.00
53619;BME280;68717;53.040;18.488;2023-04-19T00:02:47;102005.41;;;22.04;100.00
53619;BME280;68717;53.040;18.488;2023-04-19T00:03:01;102005.41;;;22.04;100.00
53619;BME280;68717;53.040;18.488;2023-04-19T00:03:14;102004.50;;;22.03;100.00
53619;BME280;68717;53.040;18.488;2023-04-19T00:03:29;102002.66;;;22.04;100.00
53619;BME280;68717;53.040;18.488;2023-04-19T00:03:42;102004.50;;;22.03;100.00
53619;BME280;68717;53.040;18.488;2023-04-19T00:03:55;101999.06;;;22.03;100.00
53619;BME280;68717;53.040;18.488;2023-04-19T00:04:08;102005.41;;;22.04;100.00
53619;BME280;68717;53.040;18.488;2023-04-19T00:04:21;102010.84;;;22.04;100.00
53619;BME280;68717;53.040;18.488;2023-04-19T00:04:34;102002.66;;;22.04;100.00
53619;BME280;68717;53.040;18.488;2023-04-19T00:04:49;102006.41;;;22.03;100.00
53619;BME280;68717;53.040;18.488;2023-04-19T00:05:05;101999.94;;;22.04;100.00
53619;BME280;68717;53.040;18.488;2023-04-19T00:05:18;102003.66;;;22.03;100.00
53619;BME280;68717;53.040;18.488;2023-04-19T00:05:33;102002.84;;;22.02;100.00
53619;BME280;68717;53.040;18.488;2023-04-19T00:05:46;102002.84;;;22.02;100.00
53619;BME280;68717;53.040;18.488;2023-04-19T00:05:59;102013.75;;;22.02;100.00
53619;BME280;68717;53.040;18.488;2023-04-19T00:06:12;102003.66;;;22.03;100.00
53619;BME280;68717;53.040;18.488;2023-04-19T00:06:26;102009.13;;;22.03;100.00
53619;BME280;68717;53.040;18.488;2023-04-19T00:06:41;102006.41;;;22.03;100.00
53619;BME280;68717;53.040;18.488;2023-04-19T00:06:54;102002.84;;;22.02;100.00
53619;BME280;68717;53.040;18.488;2023-04-19T00:07:07;102008.28;;;22.02;100.00
53619;BME280;68717;53.040;18.488;2023-04-19T00:07:20;102006.41;;;22.03;100.00
53619;BME280;68717;53.040;18.488;2023-04-19T00:07:33;102006.41;;;22.03;100.00
53619;BME280;68717;53.040;18.488;2023-04-19T00:07:45;102013.75;;;22.02;100.00
53619;BME280;68717;53.040;18.488;2023-04-19T00:07:58;102000.09;;;22.02;100.00
53619;BME280;68717;53.040;18.488;2023-04-19T00:08:12;102003.66;;;22.03;100.00
53619;BME280;68717;53.040;18.488;2023-04-19T00:08:25;101997.53;;;22.01;100.00
53619;BME280;68717;53.040;18.488;2023-04-19T00:08:38;102009.13;;;22.03;100.00
53619;BME280;68717;53.040;18.488;2023-04-19T00:08:50;102009.13;;;22.03;100.00
53619;BME280;68717;53.040;18.488;2023-04-19T00:09:03;102003.66;;;22.03;100.00
53619;BME280;68717;53.040;18.488;2023-04-19T00:09:15;102006.41;;;22.03;100.00
53619;BME280;68717;53.040;18.488;2023-04-19T00:09:28;102007.44;;;22.02;100.00
53619;BME280;68717;53.040;18.488;2023-04-19T00:09:42;102009.13;;;22.03;100.00
53619;BME280;68717;53.040;18.488;2023-04-19T00:09:54;102002.84;;;22.02;100.00
53619;BME280;68717;53.040;18.488;2023-04-19T00:10:08;102008.28;;;22.02;100.00
53619;BME280;68717;53.040;18.488;2023-04-19T00:10:21;102002.00;;;22.02;100.00
53619;BME280;68717;53.040;18.488;2023-04-19T00:10:33;102003.66;;;22.03;100.00
53619;BME280;68717;53.040;18.488;2023-04-19T00:10:47;102006.41;;;22.03;100.00
53619;BME280;68717;53.040;18.488;2023-04-19T00:11:00;102002.00;;;22.02;100.00
53619;BME280;68717;53.040;18.488;2023-04-19T00:11:12;102005.56;;;22.02;100.00
53619;BME280;68717;53.040;18.488;2023-04-19T00:11:25;101996.53;;;22.02;100.00
53619;BME280;68717;53.040;18.488;2023-04-19T00:11:40;102002.00;;;22.02;100.00
53619;BME280;68717;53.040;18.488;2023-04-19T00:11:52;102002.00;;;22.02;100.00
53619;BME280;68717;53.040;18.488;2023-04-19T00:12:05;102002.00;;;22.02;100.00
53619;BME280;68717;53.040;18.488;2023-04-19T00:12:18;101995.66;;;22.01;100.00
53619;BME280;68717;53.040;18.488;2023-04-19T00:12:30;102003.00;;;22.01;100.00
53619;BME280;68717;53.040;18.488;2023-04-19T00:12:43;102007.44;;;22.02;100.00
53619;BME280;68717;53.040;18.488;2023-04-19T00:12:56;101999.25;;;22.02;100.00
53619;BME280;68717;53.040;18.488;2023-04-19T00:13:09;102002.00;;;22.02;100.00
53619;BME280;68717;53.040;18.488;2023-04-19T00:13:22;101993.78;;;22.02;100.00
53619;BME280;68717;53.040;18.488;2023-04-19T00:13:35;101999.25;;;22.02;100.00
53619;BME280;68717;53.040;18.488;2023-04-19T00:13:47;101996.53;;;22.02;100.00
53619;BME280;68717;53.040;18.488;2023-04-19T00:14:00;101998.38;;;22.01;100.00
53619;BME280;68717;53.040;18.488;2023-04-19T00:14:13;102000.25;;;22.01;100.00
53619;BME280;68717;53.040;18.488;2023-04-19T00:14:26;101995.66;;;22.01;100.00
53619;BME280;68717;53.040;18.488;2023-04-19T00:14:39;101997.53;;;22.01;100.00
53619;BME280;68717;53.040;18.488;2023-04-19T00:14:51;102004.72;;;22.02;100.00
53619;BME280;68717;53.040;18.488;2023-04-19T00:15:06;101995.66;;;22.01;100.00
53619;BME280;68717;53.040;18.488;2023-04-19T00:15:18;101995.66;;;22.01;100.00
53619;BME280;68717;53.040;18.488;2023-04-19T00:15:31;101994.81;;;22.01;100.00
53619;BME280;68717;53.040;18.488;2023-04-19T00:15:46;101995.66;;;22.01;100.00
53619;BME280;68717;53.040;18.488;2023-04-19T00:15:59;101990.19;;;22.01;100.00
53619;BME280;68717;53.040;18.488;2023-04-19T00:16:12;101989.34;;;22.01;100.00
53619;BME280;68717;53.040;18.488;2023-04-19T00:16:25;101998.38;;;22.01;100.00
53619;BME280;68717;53.040;18.488;2023-04-19T00:16:37;101994.81;;;22.01;100.00
53619;BME280;68717;53.040;18.488;2023-04-19T00:16:51;101988.50;;;22.00;100.00
53619;BME280;68717;53.040;18.488;2023-04-19T00:17:04;101996.69;;;22.00;100.00
53619;BME280;68717;53.040;18.488;2023-04-19T00:17:17;101992.91;;;22.01;100.00
53619;BME280;68717;53.040;18.488;2023-04-19T00:17:33;101987.66;;;22.00;100.00
53619;BME280;68717;53.040;18.488;2023-04-19T00:17:46;101994.81;;;22.01;100.00
53619;BME280;68717;53.040;18.488;2023-04-19T00:17:59;101989.34;;;22.01;100.00
53619;BME280;68717;53.040;18.488;2023-04-19T00:18:12;101987.66;;;22.00;100.00
53619;BME280;68717;53.040;18.488;2023-04-19T00:18:25;101985.78;;;22.00;100.00
53619;BME280;68717;53.040;18.488;2023-04-19T00:18:39;101987.66;;;22.00;100.00
53619;BME280;68717;53.040;18.488;2023-04-19T00:18:51;101993.13;;;22.00;100.00
53619;BME280;68717;53.040;18.488;2023-04-19T00:19:04;101993.97;;;22.00;100.00
53619;BME280;68717;53.040;18.488;2023-04-19T00:19:17;101992.28;;;21.99;100.00
53619;BME280;68717;53.040;18.488;2023-04-19T00:19:29;101989.34;;;22.01;100.00
53619;BME280;68717;53.040;18.488;2023-04-19T00:19:42;101986.63;;;22.01;100.00
53619;BME280;68717;53.040;18.488;2023-04-19T00:19:55;101988.50;;;22.00;100.00
53619;BME280;68717;53.040;18.488;2023-04-19T00:20:09;101988.50;;;22.00;100.00
53619;BME280;68717;53.040;18.488;2023-04-19T00:20:24;101985.78;;;22.00;100.00
53619;BME280;68717;53.040;18.488;2023-04-19T00:20:37;101984.94;;;22.00;100.00
53619;BME280;68717;53.040;18.488;2023-04-19T00:20:50;101990.38;;;22.00;100.00
53619;BME280;68717;53.040;18.488;2023-04-19T00:21:03;101988.50;;;22.00;100.00
53619;BME280;68717;53.040;18.488;2023-04-19T00:21:16;101990.38;;;22.00;100.00
53619;BME280;68717;53.040;18.488;2023-04-19T00:21:29;101992.28;;;21.99;100.00
53619;BME280;68717;53.040;18.488;2023-04-19T00:21:42;101989.53;;;21.99;100.00
53619;BME280;68717;53.040;18.488;2023-04-19T00:21:55;101991.41;;;21.99;100.00
53619;BME280;68717;53.040;18.488;2023-04-19T00:22:08;101991.22;;;22.00;100.00
53619;BME280;68717;53.040;18.488;2023-04-19T00:22:20;101993.13;;;22.00;100.00
53619;BME280;68717;53.040;18.488;2023-04-19T00:22:33;101993.13;;;22.00;100.00
53619;BME280;68717;53.040;18.488;2023-04-19T00:22:46;101990.38;;;22.00;100.00
53619;BME280;68717;53.040;18.488;2023-04-19T00:22:59;101993.13;;;22.00;100.00
53619;BME280;68717;53.040;18.488;2023-04-19T00:23:12;101988.66;;;21.99;100.00
53619;BME280;68717;53.040;18.488;2023-04-19T00:23:25;101989.53;;;21.99;100.00
53619;BME280;68717;53.040;18.488;2023-04-19T00:23:38;101982.19;;;22.00;100.00
53619;BME280;68717;53.040;18.488;2023-04-19T00:23:51;101988.66;;;21.99;100.00
53619;BME280;68717;53.040;18.488;2023-04-19T00:24:05;101983.22;;;21.99;100.00
53619;BME280;68717;53.040;18.488;2023-04-19T00:24:18;101980.47;;;21.99;100.00
53619;BME280;68717;53.040;18.488;2023-04-19T00:24:32;101983.22;;;21.99;100.00
53619;BME280;68717;53.040;18.488;2023-04-19T00:24:44;101988.66;;;21.99;100.00
53619;BME280;68717;53.040;18.488;2023-04-19T00:24:57;101980.47;;;21.99;100.00
53619;BME280;68717;53.040;18.488;2023-04-19T00:25:09;101974.19;;;21.98;100.00
53619;BME280;68717;53.040;18.488;2023-04-19T00:25:22;101982.38;;;21.98;100.00
53619;BME280;68717;53.040;18.488;2023-04-19T00:25:35;101985.94;;;21.99;100.00
53619;BME280;68717;53.040;18.488;2023-04-19T00:25:48;101985.09;;;21.98;100.00
53619;BME280;68717;53.040;18.488;2023-04-19T00:26:01;101975.03;;;21.99;100.00
53619;BME280;68717;53.040;18.488;2023-04-19T00:26:14;101979.63;;;21.98;100.00
53619;BME280;68717;53.040;18.488;2023-04-19T00:26:28;101977.75;;;21.99;100.00
53619;BME280;68717;53.040;18.488;2023-04-19T00:26:41;101980.47;;;21.99;100.00
53619;BME280;68717;53.040;18.488;2023-04-19T00:26:53;101984.25;;;21.98;100.00
53619;BME280;68717;53.040;18.488;2023-04-19T00:27:06;101978.63;;;21.99;100.00
53619;BME280;68717;53.040;18.488;2023-04-19T00:27:19;101978.78;;;21.98;100.00
53619;BME280;68717;53.040;18.488;2023-04-19T00:27:31;101975.03;;;21.99;100.00
53619;BME280;68717;53.040;18.488;2023-04-19T00:27:45;101978.78;;;21.98;100.00
53619;BME280;68717;53.040;18.488;2023-04-19T00:27:58;101981.53;;;21.98;100.00
53619;BME280;68717;53.040;18.488;2023-04-19T00:28:10;101978.78;;;21.98;100.00
53619;BME280;68717;53.040;18.488;2023-04-19T00:28:23;101982.38;;;21.98;100.00
53619;BME280;68717;53.040;18.488;2023-04-19T00:28:36;101984.25;;;21.98;100.00
53619;BME280;68717;53.040;18.488;2023-04-19T00:28:49;101973.34;;;21.98;100.00
53619;BME280;68717;53.040;18.488;2023-04-19T00:29:01;101977.94;;;21.97;100.00
53619;BME280;68717;53.040;18.488;2023-04-19T00:29:14;101981.53;;;21.98;100.00
53619;BME280;68717;53.040;18.488;2023-04-19T00:29:28;101983.41;;;21.97;100.00
53619;BME280;68717;53.040;18.488;2023-04-19T00:29:40;101972.50;;;21.97;100.00
53619;BME280;68717;53.040;18.488;2023-04-19T00:29:53;101977.94;;;21.97;100.00
53619;BME280;68717;53.040;18.488;2023-04-19T00:30:06;101977.94;;;21.97;100.00
53619;BME280;68717;53.040;18.488;2023-04-19T00:30:19;101976.06;;;21.98;100.00
53619;BME280;68717;53.040;18.488;2023-04-19T00:30:32;101976.06;;;21.98;100.00
53619;BME280;68717;53.040;18.488;2023-04-19T00:30:44;101977.06;;;21.96;100.00
53619;BME280;68717;53.040;18.488;2023-04-19T00:30:57;101978.78;;;21.98;100.00
53619;BME280;68717;53.040;18.488;2023-04-19T00:31:10;101977.06;;;21.96;100.00
53619;BME280;68717;53.040;18.488;2023-04-19T00:31:24;101977.06;;;21.96;100.00
53619;BME280;68717;53.040;18.488;2023-04-19T00:31:37;101984.25;;;21.98;100.00
53619;BME280;68717;53.040;18.488;2023-04-19T00:31:50;101976.06;;;21.98;100.00
53619;BME280;68717;53.040;18.488;2023-04-19T00:32:04;101976.22;;;21.96;100.00
53619;BME280;68717;53.040;18.488;2023-04-19T00:32:17;101982.53;;;21.96;100.00
53619;BME280;68717;53.040;18.488;2023-04-19T00:32:29;101974.34;;;21.96;100.00
53619;BME280;68717;53.040;18.488;2023-04-19T00:32:43;101982.53;;;21.96;100.00
53619;BME280;68717;53.040;18.488;2023-04-19T00:32:57;101976.22;;;21.96;100.00
53619;BME280;68717;53.040;18.488;2023-04-19T00:33:10;101982.53;;;21.96;100.00
53619;BME280;68717;53.040;18.488;2023-04-19T00:33:24;101977.06;;;21.96;100.00
53619;BME280;68717;53.040;18.488;2023-04-19T00:33:37;101975.38;;;21.95;100.00
53619;BME280;68717;53.040;18.488;2023-04-19T00:33:49;101971.63;;;21.96;100.00
53619;BME280;68717;53.040;18.488;2023-04-19T00:34:02;101983.59;;;21.95;100.00
53619;BME280;68717;53.040;18.488;2023-04-19T00:34:15;101970.78;;;21.96;100.00
53619;BME280;68717;53.040;18.488;2023-04-19T00:34:28;101972.66;;;21.95;100.00
53619;BME280;68717;53.040;18.488;2023-04-19T00:34:42;101975.38;;;21.95;100.00
53619;BME280;68717;53.040;18.488;2023-04-19T00:34:54;101977.06;;;21.96;100.00
53619;BME280;68717;53.040;18.488;2023-04-19T00:35:07;101968.03;;;21.96;100.00
53619;BME280;68717;53.040;18.488;2023-04-19T00:35:20;101978.97;;;21.96;100.00
53619;BME280;68717;53.040;18.488;2023-04-19T00:35:33;101969.94;;;21.95;100.00
53619;BME280;68717;53.040;18.488;2023-04-19T00:35:45;101975.38;;;21.95;100.00
53619;BME280;68717;53.040;18.488;2023-04-19T00:35:58;101976.22;;;21.96;100.00
53619;BME280;68717;53.040;18.488;2023-04-19T00:36:12;101973.50;;;21.96;100.00
53619;BME280;68717;53.040;18.488;2023-04-19T00:36:24;101974.34;;;21.96;100.00
53619;BME280;68717;53.040;18.488;2023-04-19T00:36:38;101975.38;;;21.95;100.00
53619;BME280;68717;53.040;18.488;2023-04-19T00:36:50;101969.09;;;21.95;100.00
53619;BME280;68717;53.040;18.488;2023-04-19T00:37:03;101980.84;;;21.95;100.00
53619;BME280;68717;53.040;18.488;2023-04-19T00:37:16;101975.38;;;21.95;100.00
53619;BME280;68717;53.040;18.488;2023-04-19T00:37:30;101977.06;;;21.96;100.00
53619;BME280;68717;53.040;18.488;2023-04-19T00:37:43;101980.84;;;21.95;100.00
53619;BME280;68717;53.040;18.488;2023-04-19T00:37:55;101978.13;;;21.95;100.00
53619;BME280;68717;53.040;18.488;2023-04-19T00:38:08;101975.38;;;21.95;100.00
53619;BME280;68717;53.040;18.488;2023-04-19T00:38:21;101972.66;;;21.95;100.00
53619;BME280;68717;53.040;18.488;2023-04-19T00:38:34;101969.09;;;21.95;100.00
53619;BME280;68717;53.040;18.488;2023-04-19T00:38:47;101971.81;;;21.95;100.00
53619;BME280;68717;53.040;18.488;2023-04-19T00:39:00;101975.38;;;21.95;100.00
53619;BME280;68717;53.040;18.488;2023-04-19T00:39:12;101964.47;;;21.95;100.00
53619;BME280;68717;53.040;18.488;2023-04-19T00:39:26;101980.00;;;21.95;100.00
53619;BME280;68717;53.040;18.488;2023-04-19T00:39:39;101969.94;;;21.95;100.00
53619;BME280;68717;53.040;18.488;2023-04-19T00:39:51;101979.13;;;21.94;100.00
53619;BME280;68717;53.040;18.488;2023-04-19T00:40:05;101971.81;;;21.95;100.00
53619;BME280;68717;53.040;18.488;2023-04-19T00:40:18;101976.41;;;21.94;100.00
53619;BME280;68717;53.040;18.488;2023-04-19T00:40:32;101968.22;;;21.94;100.00
53619;BME280;68717;53.040;18.488;2023-04-19T00:40:45;101973.66;;;21.94;100.00
53619;BME280;68717;53.040;18.488;2023-04-19T00:40:58;101971.81;;;21.95;100.00
53619;BME280;68717;53.040;18.488;2023-04-19T00:41:10;101968.22;;;21.94;100.00
53619;BME280;68717;53.040;18.488;2023-04-19T00:41:23;101969.25;;;21.93;100.00
53619;BME280;68717;53.040;18.488;2023-04-19T00:41:37;101971.16;;;21.93;100.00
53619;BME280;68717;53.040;18.488;2023-04-19T00:41:49;101973.66;;;21.94;100.00
53619;BME280;68717;53.040;18.488;2023-04-19T00:42:02;101977.44;;;21.93;100.00
53619;BME280;68717;53.040;18.488;2023-04-19T00:42:15;101975.56;;;21.94;100.00
53619;BME280;68717;53.040;18.488;2023-04-19T00:42:27;101970.09;;;21.94;100.00
53619;BME280;68717;53.040;18.488;2023-04-19T00:42:41;101976.41;;;21.94;100.00
53619;BME280;68717;53.040;18.488;2023-04-19T00:42:53;101978.13;;;21.95;100.00
53619;BME280;68717;53.040;18.488;2023-04-19T00:43:07;101971.97;;;21.93;100.00
53619;BME280;68717;53.040;18.488;2023-04-19T00:43:20;101969.09;;;21.95;100.00
53619;BME280;68717;53.040;18.488;2023-04-19T00:43:33;101971.97;;;21.93;100.00
53619;BME280;68717;53.040;18.488;2023-04-19T00:43:45;101971.97;;;21.93;100.00
53619;BME280;68717;53.040;18.488;2023-04-19T00:43:58;101971.97;;;21.93;100.00
53619;BME280;68717;53.040;18.488;2023-04-19T00:44:11;101967.38;;;21.94;100.00
53619;BME280;68717;53.040;18.488;2023-04-19T00:44:23;101969.09;;;21.95;100.00
53619;BME280;68717;53.040;18.488;2023-04-19T00:44:36;101971.97;;;21.93;100.00
53619;BME280;68717;53.040;18.488;2023-04-19T00:44:49;101966.53;;;21.93;100.00
53619;BME280;68717;53.040;18.488;2023-04-19T00:45:03;101973.66;;;21.94;100.00
53619;BME280;68717;53.040;18.488;2023-04-19T00:45:16;101973.00;;;21.92;100.00
53619;BME280;68717;53.040;18.488;2023-04-19T00:45:28;101965.69;;;21.93;100.00
53619;BME280;68717;53.040;18.488;2023-04-19T00:45:42;101969.25;;;21.93;100.00
53619;BME280;68717;53.040;18.488;2023-04-19T00:45:55;101966.53;;;21.93;100.00
53619;BME280;68717;53.040;18.488;2023-04-19T00:46:08;101969.25;;;21.93;100.00
53619;BME280;68717;53.040;18.488;2023-04-19T00:46:21;101967.38;;;21.94;100.00
53619;BME280;68717;53.040;18.488;2023-04-19T00:46:36;101966.53;;;21.93;100.00
53619;BME280;68717;53.040;18.488;2023-04-19T00:46:49;101968.41;;;21.93;100.00
53619;BME280;68717;53.040;18.488;2023-04-19T00:47:02;101964.63;;;21.94;100.00
53619;BME280;68717;53.040;18.488;2023-04-19T00:47:15;101961.06;;;21.93;100.00
53619;BME280;68717;53.040;18.488;2023-04-19T00:47:29;101963.78;;;21.93;100.00
53619;BME280;68717;53.040;18.488;2023-04-19T00:47:41;101966.53;;;21.93;100.00
53619;BME280;68717;53.040;18.488;2023-04-19T00:47:56;101960.22;;;21.93;100.00
53619;BME280;68717;53.040;18.488;2023-04-19T00:48:10;101957.50;;;21.93;100.00
53619;BME280;68717;53.040;18.488;2023-04-19T00:48:23;101959.34;;;21.92;100.00
53619;BME280;68717;53.040;18.488;2023-04-19T00:48:37;101960.22;;;21.93;100.00
53619;BME280;68717;53.040;18.488;2023-04-19T00:48:49;101962.94;;;21.93;100.00
53619;BME280;68717;53.040;18.488;2023-04-19T00:49:02;101956.44;;;21.94;100.00
53619;BME280;68717;53.040;18.488;2023-04-19T00:49:15;101961.91;;;21.94;100.00
53619;BME280;68717;53.040;18.488;2023-04-19T00:49:29;101961.06;;;21.93;100.00
53619;BME280;68717;53.040;18.488;2023-04-19T00:49:42;101958.34;;;21.93;100.00
53619;BME280;68717;53.040;18.488;2023-04-19T00:49:55;101955.59;;;21.93;100.00
53619;BME280;68717;53.040;18.488;2023-04-19T00:50:09;101955.59;;;21.93;100.00
53619;BME280;68717;53.040;18.488;2023-04-19T00:50:21;101961.06;;;21.93;100.00
53619;BME280;68717;53.040;18.488;2023-04-19T00:50:34;101957.50;;;21.93;100.00
53619;BME280;68717;53.040;18.488;2023-04-19T00:50:47;101961.06;;;21.93;100.00
53619;BME280;68717;53.040;18.488;2023-04-19T00:51:00;101958.66;;;21.90;100.00
53619;BME280;68717;53.040;18.488;2023-04-19T00:51:12;101959.34;;;21.92;100.00
53619;BME280;68717;53.040;18.488;2023-04-19T00:51:26;101959.34;;;21.92;100.00
53619;BME280;68717;53.040;18.488;2023-04-19T00:51:39;101962.06;;;21.92;100.00
53619;BME280;68717;53.040;18.488;2023-04-19T00:51:52;101961.91;;;21.94;100.00
53619;BME280;68717;53.040;18.488;2023-04-19T00:52:06;101950.16;;;21.93;100.00
53619;BME280;68717;53.040;18.488;2023-04-19T00:52:20;101964.81;;;21.92;100.00
53619;BME280;68717;53.040;18.488;2023-04-19T00:52:33;101965.69;;;21.93;100.00
53619;BME280;68717;53.040;18.488;2023-04-19T00:52:46;101962.06;;;21.92;100.00
53619;BME280;68717;53.040;18.488;2023-04-19T00:53:00;101952.19;;;21.91;100.00
53619;BME280;68717;53.040;18.488;2023-04-19T00:53:13;101960.38;;;21.91;100.00
53619;BME280;68717;53.040;18.488;2023-04-19T00:53:27;101963.13;;;21.91;100.00
53619;BME280;68717;53.040;18.488;2023-04-19T00:53:40;101954.94;;;21.91;100.00
53619;BME280;68717;53.040;18.488;2023-04-19T00:53:53;101959.34;;;21.92;100.00
53619;BME280;68717;53.040;18.488;2023-04-19T00:54:06;101958.50;;;21.92;100.00
53619;BME280;68717;53.040;18.488;2023-04-19T00:54:20;101954.09;;;21.91;100.00
53619;BME280;68717;53.040;18.488;2023-04-19T00:54:34;101957.66;;;21.91;100.00
53619;BME280;68717;53.040;18.488;2023-04-19T00:54:48;101952.19;;;21.91;100.00
53619;BME280;68717;53.040;18.488;2023-04-19T00:55:01;101953.03;;;21.92;100.00
53619;BME280;68717;53.040;18.488;2023-04-19T00:55:15;101951.16;;;21.92;100.00
53619;BME280;68717;53.040;18.488;2023-04-19T00:55:28;101957.66;;;21.91;100.00
53619;BME280;68717;53.040;18.488;2023-04-19T00:55:41;101954.94;;;21.91;100.00
53619;BME280;68717;53.040;18.488;2023-04-19T00:55:56;101952.19;;;21.91;100.00
53619;BME280;68717;53.040;18.488;2023-04-19T00:56:12;101954.94;;;21.91;100.00
53619;BME280;68717;53.040;18.488;2023-04-19T00:56:26;101957.66;;;21.91;100.00
53619;BME280;68717;53.040;18.488;2023-04-19T00:56:39;101958.66;;;21.90;100.00
53619;BME280;68717;53.040;18.488;2023-04-19T00:56:52;101954.09;;;21.91;100.00
53619;BME280;68717;53.040;18.488;2023-04-19T00:57:04;101952.19;;;21.91;100.00
53619;BME280;68717;53.040;18.488;2023-04-19T00:57:17;101957.66;;;21.91;100.00
53619;BME280;68717;53.040;18.488;2023-04-19T00:57:30;101950.47;;;21.90;100.00
53619;BME280;68717;53.040;18.488;2023-04-19T00:57:43;101953.22;;;21.90;100.00
53619;BME280;68717;53.040;18.488;2023-04-19T00:57:56;101955.94;;;21.90;100.00
53619;BME280;68717;53.040;18.488;2023-04-19T00:58:09;101957.66;;;21.91;100.00
53619;BME280;68717;53.040;18.488;2023-04-19T00:58:22;101955.94;;;21.90;100.00
53619;BME280;68717;53.040;18.488;2023-04-19T00:58:35;101951.34;;;21.91;100.00
53619;BME280;68717;53.040;18.488;2023-04-19T00:58:49;101956.81;;;21.91;100.00
53619;BME280;68717;53.040;18.488;2023-04-19T00:59:02;101954.09;;;21.91;100.00
53619;BME280;68717;53.040;18.488;2023-04-19T00:59:15;101954.09;;;21.91;100.00
53619;BME280;68717;53.040;18.488;2023-04-19T00:59:28;101954.25;;;21.89;100.00
53619;BME280;68717;53.040;18.488;2023-04-19T00:59:41;101961.41;;;21.90;100.00
53619;BME280;68717;53.040;18.488;2023-04-19T00:59:55;101955.94;;;21.90;100.00
53619;BME280;68717;53.040;18.488;2023-04-19T01:00:09;101949.84;;;21.88;100.00
53619;BME280;68717;53.040;18.488;2023-04-19T01:00:22;101955.94;;;21.90;100.00
53619;BME280;68717;53.040;18.488;2023-04-19T01:00:36;101955.94;;;21.90;100.00
53619;BME280;68717;53.040;18.488;2023-04-19T01:00:48;101951.53;;;21.89;100.00
53619;BME280;68717;53.040;18.488;2023-04-19T01:01:01;101956.81;;;21.91;100.00
53619;BME280;68717;53.040;18.488;2023-04-19T01:01:14;101950.47;;;21.90;100.00
53619;BME280;68717;53.040;18.488;2023-04-19T01:01:28;101953.41;;;21.89;100.00
53619;BME280;68717;53.040;18.488;2023-04-19T01:01:41;101955.94;;;21.90;100.00
53619;BME280;68717;53.040;18.488;2023-04-19T01:01:54;101948.78;;;21.89;100.00
53619;BME280;68717;53.040;18.488;2023-04-19T01:02:08;101947.94;;;21.89;100.00
53619;BME280;68717;53.040;18.488;2023-04-19T01:02:20;101955.94;;;21.90;100.00
53619;BME280;68717;53.040;18.488;2023-04-19T01:02:33;101947.94;;;21.89;100.00
53619;BME280;68717;53.040;18.488;2023-04-19T01:02:46;101950.47;;;21.90;100.00
53619;BME280;68717;53.040;18.488;2023-04-19T01:03:01;101955.94;;;21.90;100.00
53619;BME280;68717;53.040;18.488;2023-04-19T01:03:15;101946.06;;;21.89;100.00
53619;BME280;68717;53.040;18.488;2023-04-19T01:03:29;101943.34;;;21.89;100.00
53619;BME280;68717;53.040;18.488;2023-04-19T01:03:42;101950.47;;;21.90;100.00
53619;BME280;68717;53.040;18.488;2023-04-19T01:03:55;101947.94;;;21.89;100.00
53619;BME280;68717;53.040;18.488;2023-04-19T01:04:08;101947.75;;;21.90;100.00
53619;BME280;68717;53.040;18.488;2023-04-19T01:04:22;101946.06;;;21.89;100.00
53619;BME280;68717;53.040;18.488;2023-04-19T01:04:35;101950.47;;;21.90;100.00
53619;BME280;68717;53.040;18.488;2023-04-19T01:04:48;101945.03;;;21.90;100.00
53619;BME280;68717;53.040;18.488;2023-04-19T01:05:01;101943.34;;;21.89;100.00
53619;BME280;68717;53.040;18.488;2023-04-19T01:05:16;101946.06;;;21.89;100.00
53619;BME280;68717;53.040;18.488;2023-04-19T01:05:29;101946.06;;;21.89;100.00
53619;BME280;68717;53.040;18.488;2023-04-19T01:05:42;101933.81;;;21.85;100.00
53619;BME280;68717;53.040;18.488;2023-04-19T01:05:55;101943.34;;;21.89;100.00
53619;BME280;68717;53.040;18.488;2023-04-19T01:06:08;101945.03;;;21.90;100.00
53619;BME280;68717;53.040;18.488;2023-04-19T01:06:21;101945.22;;;21.89;100.00
53619;BME280;68717;53.040;18.488;2023-04-19T01:06:33;101940.59;;;21.89;100.00
53619;BME280;68717;53.040;18.488;2023-04-19T01:06:49;101941.66;;;21.88;100.00
53619;BME280;68717;53.040;18.488;2023-04-19T01:07:01;101939.94;;;21.87;100.00
53619;BME280;68717;53.040;18.488;2023-04-19T01:07:14;101947.94;;;21.89;100.00
53619;BME280;68717;53.040;18.488;2023-04-19T01:07:27;101936.19;;;21.88;100.00